createdAt,value
2023-05-03T00:02:22.125Z,14.30
2023-05-03T00:07:27.027Z,14.40
2023-05-03T00:10:43.020Z,14.50
2023-05-03T00:13:14.051Z,14.30
2023-05-03T00:15:43.980Z,14.60
2023-05-03T00:18:14.117Z,14.50
2023-05-03T00:20:43.905Z,14.20
2023-05-03T00:23:15.862Z,14.20
2023-05-03T00:25:45.880Z,14.30
2023-05-03T00:28:15.472Z,14.30
2023-05-03T00:30:45.225Z,14.40
2023-05-03T00:33:16.841Z,14.40
2023-05-03T00:35:47.581Z,13.90
2023-05-03T00:38:19.244Z,14.40
2023-05-03T00:40:55.707Z,14.40
2023-05-03T00:43:25.522Z,14.40
2023-05-03T00:46:08.262Z,14.40
2023-05-03T00:48:47.151Z,14.40
2023-05-03T00:51:19.014Z,14.70
2023-05-03T00:56:23.358Z,14.60
2023-05-03T00:58:54.906Z,14.40
2023-05-03T01:01:25.557Z,14.60
2023-05-03T01:03:55.654Z,14.40
2023-05-03T01:06:34.055Z,14.40
2023-05-03T01:09:13.922Z,14.30
2023-05-03T01:11:50.385Z,14.50
2023-05-03T01:14:30.332Z,14.40
2023-05-03T01:17:07.210Z,14.40
2023-05-03T01:19:39.785Z,14.30
2023-05-03T01:22:19.224Z,14.30
2023-05-03T01:24:56.722Z,14.40
2023-05-03T01:27:31.333Z,14.30
2023-05-03T01:30:01.522Z,14.40
2023-05-03T01:32:48.704Z,14.30
2023-05-03T01:35:28.834Z,14.30
2023-05-03T01:38:00.800Z,14.50
2023-05-03T01:40:33.054Z,14.50
2023-05-03T01:43:08.722Z,14.50
2023-05-03T01:45:38.688Z,14.50
2023-05-03T01:48:12.993Z,14.50
2023-05-03T01:50:43.265Z,14.40
2023-05-03T01:53:13.385Z,14.40
2023-05-03T01:55:43.204Z,14.40
2023-05-03T01:58:16.608Z,14.50
2023-05-03T02:00:48.079Z,14.40
2023-05-03T02:03:17.966Z,14.40
2023-05-03T02:05:50.031Z,14.60
2023-05-03T02:08:19.629Z,14.50
2023-05-03T02:10:49.335Z,14.40
2023-05-03T02:13:20.686Z,14.30
2023-05-03T02:15:50.604Z,14.30
2023-05-03T02:18:20.826Z,14.40
2023-05-03T02:20:51.164Z,14.40
2023-05-03T02:23:22.218Z,14.40
2023-05-03T02:25:52.205Z,14.40
2023-05-03T02:28:23.665Z,14.20
2023-05-03T02:30:53.380Z,14.20
2023-05-03T02:33:23.286Z,14.00
2023-05-03T02:35:53.086Z,14.10
2023-05-03T02:38:23.839Z,14.30
2023-05-03T02:40:54.045Z,14.20
2023-05-03T02:43:25.805Z,14.30
2023-05-03T02:45:55.830Z,14.30
2023-05-03T02:48:26.747Z,14.10
2023-05-03T02:50:56.478Z,14.00
2023-05-03T02:53:26.468Z,14.20
2023-05-03T02:56:00.709Z,14.10
2023-05-03T02:58:33.156Z,14.10
2023-05-03T03:01:04.830Z,14.10
2023-05-03T03:03:35.336Z,14.00
2023-05-03T03:06:05.181Z,14.20
2023-05-03T03:08:38.786Z,14.20
2023-05-03T03:11:10.624Z,14.20
2023-05-03T03:13:42.173Z,13.90
2023-05-03T03:16:12.248Z,13.80
2023-05-03T03:18:42.521Z,13.90
2023-05-03T03:21:12.464Z,13.90
2023-05-03T03:23:42.140Z,13.90
2023-05-03T03:28:44.937Z,13.70
2023-05-03T03:31:18.654Z,13.70
2023-05-03T03:33:49.070Z,13.80
2023-05-03T03:36:22.657Z,13.80
2023-05-03T03:38:52.578Z,13.70
2023-05-03T03:41:22.601Z,13.80
2023-05-03T03:43:54.769Z,13.80
2023-05-03T03:46:25.373Z,13.90
2023-05-03T03:48:58.295Z,13.70
2023-05-03T03:51:30.651Z,13.80
2023-05-03T03:54:01.803Z,13.70
2023-05-03T03:56:37.526Z,13.80
2023-05-03T03:59:09.618Z,13.90
2023-05-03T04:01:40.659Z,13.90
2023-05-03T04:04:11.875Z,14.00
2023-05-03T04:06:42.131Z,13.90
2023-05-03T04:09:17.629Z,14.10
2023-05-03T04:11:48.418Z,14.10
2023-05-03T04:14:19.750Z,14.30
2023-05-03T04:16:50.755Z,14.10
2023-05-03T04:19:22.436Z,14.10
2023-05-03T04:21:54.710Z,14.10
2023-05-03T04:24:24.635Z,14.00
2023-05-03T04:29:32.642Z,14.00
2023-05-03T04:32:04.598Z,14.00
2023-05-03T04:34:34.204Z,14.10
2023-05-03T04:37:07.106Z,14.10
2023-05-03T04:39:37.221Z,14.00
2023-05-03T04:42:09.804Z,14.00
2023-05-03T04:44:42.058Z,14.20
2023-05-03T04:47:12.497Z,14.30
2023-05-03T04:49:43.429Z,14.10
2023-05-03T04:52:13.331Z,13.90
2023-05-03T04:54:43.048Z,13.90
2023-05-03T04:57:12.651Z,14.10
2023-05-03T04:59:44.216Z,14.00
2023-05-03T05:02:14.353Z,14.00
2023-05-03T05:04:45.020Z,14.10
2023-05-03T05:07:15.506Z,14.10
2023-05-03T05:09:47.654Z,14.20
2023-05-03T05:12:18.685Z,14.30
2023-05-03T05:14:51.039Z,14.30
2023-05-03T05:17:22.218Z,14.30
2023-05-03T05:19:53.554Z,14.40
2023-05-03T05:22:23.480Z,14.50
2023-05-03T05:24:59.011Z,14.40
2023-05-03T05:27:29.852Z,14.70
2023-05-03T05:30:04.989Z,14.50
2023-05-03T05:32:36.583Z,14.50
2023-05-03T05:35:07.590Z,14.60
2023-05-03T05:37:38.217Z,14.70
2023-05-03T05:40:10.892Z,14.70
2023-05-03T05:42:46.746Z,14.60
2023-05-03T05:45:18.505Z,14.90
2023-05-03T05:47:48.566Z,14.90
2023-05-03T05:50:19.496Z,14.80
2023-05-03T05:52:56.128Z,14.90
2023-05-03T05:55:29.161Z,15.10
2023-05-03T05:58:01.797Z,15.10
2023-05-03T06:00:41.447Z,15.10
2023-05-03T06:03:11.436Z,15.20
2023-05-03T06:05:42.702Z,15.30
2023-05-03T06:08:13.335Z,15.30
2023-05-03T06:10:44.227Z,15.50
2023-05-03T06:13:14.717Z,15.70
2023-05-03T06:15:47.069Z,15.60
2023-05-03T06:18:16.914Z,15.60
2023-05-03T06:20:52.135Z,15.70
2023-05-03T06:23:23.265Z,15.80
2023-05-03T06:25:54.718Z,16.00
2023-05-03T06:28:25.958Z,15.90
2023-05-03T06:30:59.686Z,16.00
2023-05-03T06:33:34.997Z,16.10
2023-05-03T06:36:05.228Z,16.20
2023-05-03T06:38:34.925Z,16.20
2023-05-03T06:41:06.912Z,16.30
2023-05-03T06:43:37.529Z,16.30
2023-05-03T06:46:10.463Z,16.40
2023-05-03T06:48:42.000Z,16.50
2023-05-03T06:51:12.199Z,16.60
2023-05-03T06:53:42.515Z,16.60
2023-05-03T06:56:12.725Z,16.60
2023-05-03T06:58:42.452Z,16.60
2023-05-03T07:01:14.119Z,16.50
2023-05-03T07:03:44.266Z,16.80
2023-05-03T07:06:14.350Z,16.70
2023-05-03T07:08:44.140Z,16.90
2023-05-03T07:11:13.846Z,16.80
2023-05-03T07:13:43.871Z,16.90
2023-05-03T07:16:15.679Z,17.00
2023-05-03T07:18:46.045Z,17.00
2023-05-03T07:21:16.063Z,17.00
2023-05-03T07:23:46.593Z,17.20
2023-05-03T07:26:16.304Z,17.20
2023-05-03T07:28:46.321Z,17.20
2023-05-03T07:31:17.663Z,17.40
2023-05-03T07:33:47.630Z,17.60
2023-05-03T07:36:18.007Z,17.60
2023-05-03T07:38:48.123Z,17.50
2023-05-03T07:41:18.145Z,17.60
2023-05-03T07:43:48.258Z,17.80
2023-05-03T07:48:49.948Z,18.20
2023-05-03T07:51:19.955Z,18.40
2023-05-03T07:53:49.763Z,18.30
2023-05-03T07:56:19.886Z,18.40
2023-05-03T07:58:57.007Z,18.30
2023-05-03T08:01:37.793Z,18.50
2023-05-03T08:04:08.634Z,18.60
2023-05-03T08:06:38.984Z,18.60
2023-05-03T08:09:09.604Z,18.50
2023-05-03T08:11:40.987Z,18.70
2023-05-03T08:14:12.521Z,18.60
2023-05-03T08:16:43.795Z,18.50
2023-05-03T08:19:13.700Z,18.70
2023-05-03T08:21:43.603Z,18.70
2023-05-03T08:24:16.044Z,18.80
2023-05-03T08:26:48.755Z,18.90
2023-05-03T08:29:18.459Z,19.00
2023-05-03T08:31:50.335Z,19.00
2023-05-03T08:34:20.236Z,19.20
2023-05-03T08:36:49.856Z,19.00
2023-05-03T08:39:19.647Z,19.10
2023-05-03T08:41:50.605Z,19.10
2023-05-03T08:44:24.397Z,18.80
2023-05-03T08:46:55.717Z,18.60
2023-05-03T08:49:26.167Z,18.60
2023-05-03T08:51:58.045Z,18.80
2023-05-03T08:54:28.253Z,18.70
2023-05-03T08:56:58.164Z,18.70
2023-05-03T08:59:29.207Z,18.90
2023-05-03T09:02:01.511Z,18.90
2023-05-03T09:04:35.687Z,19.10
2023-05-03T09:07:12.260Z,19.10
2023-05-03T09:09:43.041Z,19.30
2023-05-03T09:12:14.579Z,19.40
2023-05-03T09:14:45.896Z,19.60
2023-05-03T09:17:22.123Z,19.80
2023-05-03T09:19:54.828Z,19.90
2023-05-03T09:22:29.358Z,19.90
2023-05-03T09:25:00.427Z,19.90
2023-05-03T09:27:30.625Z,19.90
2023-05-03T09:30:20.035Z,19.90
2023-05-03T09:32:54.525Z,19.90
2023-05-03T09:35:24.622Z,19.90
2023-05-03T09:37:54.449Z,20.00
2023-05-03T09:40:24.266Z,19.80
2023-05-03T09:43:14.856Z,19.80
2023-05-03T09:45:44.677Z,19.90
2023-05-03T09:48:17.917Z,20.10
2023-05-03T09:50:47.971Z,20.20
2023-05-03T09:53:19.623Z,20.30
2023-05-03T09:55:51.482Z,20.40
2023-05-03T09:58:22.227Z,20.50
2023-05-03T10:00:52.842Z,20.80
2023-05-03T10:03:36.445Z,20.90
2023-05-03T10:06:10.173Z,20.80
2023-05-03T10:08:43.654Z,20.60
2023-05-03T10:11:18.329Z,20.20
2023-05-03T10:13:48.671Z,20.40
2023-05-03T10:16:27.087Z,20.40
2023-05-03T10:19:08.862Z,20.50
2023-05-03T10:21:53.607Z,20.80
2023-05-03T10:24:23.934Z,20.50
2023-05-03T10:26:54.263Z,20.60
2023-05-03T10:29:49.581Z,20.60
2023-05-03T10:32:36.460Z,20.60
2023-05-03T10:35:11.205Z,20.40
2023-05-03T10:37:44.075Z,20.40
2023-05-03T10:40:16.356Z,20.40
2023-05-03T10:42:47.498Z,20.40
2023-05-03T10:45:27.141Z,20.30
2023-05-03T10:48:21.106Z,20.40
2023-05-03T10:50:53.279Z,20.40
2023-05-03T10:53:43.892Z,20.60
2023-05-03T10:56:16.041Z,20.80
2023-05-03T10:58:48.323Z,20.80
2023-05-03T11:01:19.856Z,21.10
2023-05-03T11:04:00.371Z,21.10
2023-05-03T11:06:34.760Z,21.40
2023-05-03T11:09:06.446Z,21.50
2023-05-03T11:11:37.339Z,21.40
2023-05-03T11:14:07.666Z,21.20
2023-05-03T11:16:41.127Z,21.30
2023-05-03T11:19:11.176Z,21.20
2023-05-03T11:21:42.837Z,21.10
2023-05-03T11:24:13.366Z,21.10
2023-05-03T11:26:43.375Z,21.20
2023-05-03T11:29:14.415Z,21.30
2023-05-03T11:31:44.809Z,21.20
2023-05-03T11:34:15.375Z,21.20
2023-05-03T11:36:46.997Z,21.10
2023-05-03T11:39:18.155Z,21.20
2023-05-03T11:42:04.879Z,21.20
2023-05-03T11:44:34.860Z,21.10
2023-05-03T11:47:05.455Z,20.60
2023-05-03T11:49:35.344Z,20.80
2023-05-03T11:52:06.921Z,20.70
2023-05-03T11:54:38.343Z,20.80
2023-05-03T11:57:16.655Z,20.70
2023-05-03T11:59:47.397Z,20.40
2023-05-03T12:02:18.341Z,20.30
2023-05-03T12:04:48.693Z,20.30
2023-05-03T12:07:22.902Z,20.50
2023-05-03T12:10:06.635Z,20.50
2023-05-03T12:12:47.834Z,20.50
2023-05-03T12:15:33.380Z,20.70
2023-05-03T12:18:05.445Z,20.90
2023-05-03T12:23:11.360Z,20.80
2023-05-03T12:25:44.409Z,20.70
2023-05-03T12:30:48.211Z,20.80
2023-05-03T12:33:21.964Z,21.10
2023-05-03T12:35:54.138Z,21.10
2023-05-03T12:38:27.811Z,21.00
2023-05-03T12:41:00.802Z,20.80
2023-05-03T12:43:31.030Z,20.70
2023-05-03T12:46:29.107Z,20.60
2023-05-03T12:48:54.257Z,20.60
2023-05-03T12:51:26.313Z,20.80
2023-05-03T12:54:01.616Z,20.70
2023-05-03T12:56:33.319Z,20.80
2023-05-03T12:59:33.900Z,20.90
2023-05-03T13:07:00.563Z,21.00
2023-05-03T13:12:22.811Z,22.00
2023-05-03T13:14:54.308Z,22.80
2023-05-03T13:17:24.717Z,23.60
2023-05-03T13:19:56.230Z,24.20
2023-05-03T13:22:26.242Z,25.30
2023-05-03T13:24:57.798Z,25.20
2023-05-03T13:27:28.222Z,25.10
2023-05-03T13:29:57.924Z,25.80
2023-05-03T13:32:27.872Z,26.10
2023-05-03T13:34:57.652Z,25.90
2023-05-03T13:37:27.364Z,25.90
2023-05-03T13:39:59.012Z,26.30
2023-05-03T13:42:29.232Z,25.90
2023-05-03T13:44:59.159Z,25.90
2023-05-03T13:47:33.100Z,25.60
2023-05-03T13:50:12.709Z,25.90
2023-05-03T13:52:42.419Z,26.00
2023-05-03T13:55:14.067Z,25.80
2023-05-03T13:57:44.086Z,25.70
2023-05-03T14:00:15.245Z,24.90
2023-05-03T14:02:45.183Z,25.50
2023-05-03T14:05:15.670Z,25.80
2023-05-03T14:07:45.378Z,25.70
2023-05-03T14:10:16.927Z,26.10
2023-05-03T14:12:47.230Z,25.90
2023-05-03T14:15:17.362Z,26.30
2023-05-03T14:17:50.174Z,26.60
2023-05-03T14:20:20.370Z,26.40
2023-05-03T14:22:50.080Z,26.30
2023-05-03T14:25:22.142Z,26.90
2023-05-03T14:27:52.368Z,26.60
2023-05-03T14:30:23.097Z,26.20
2023-05-03T14:32:52.873Z,25.60
2023-05-03T14:35:23.256Z,26.30
2023-05-03T14:37:53.586Z,26.50
2023-05-03T14:40:25.011Z,25.40
2023-05-03T14:42:54.601Z,24.30
2023-05-03T14:45:25.283Z,23.60
2023-05-03T14:47:56.116Z,23.10
2023-05-03T14:50:25.895Z,22.80
2023-05-03T14:52:55.716Z,22.70
2023-05-03T14:55:27.364Z,22.70
2023-05-03T14:57:57.690Z,22.50
2023-05-03T15:00:27.645Z,22.50
2023-05-03T15:02:57.801Z,22.30
2023-05-03T15:05:27.946Z,22.30
2023-05-03T15:07:57.961Z,22.90
2023-05-03T15:10:29.507Z,24.60
2023-05-03T15:12:59.497Z,23.90
2023-05-03T15:15:29.348Z,23.20
2023-05-03T15:17:59.091Z,22.70
2023-05-03T15:20:29.084Z,22.20
2023-05-03T15:22:59.184Z,22.10
2023-05-03T15:25:31.063Z,22.10
2023-05-03T15:28:04.568Z,22.00
2023-05-03T15:30:35.414Z,21.90
2023-05-03T15:33:05.521Z,22.00
2023-05-03T15:35:35.408Z,22.20
2023-05-03T15:38:05.380Z,21.70
2023-05-03T15:40:36.878Z,21.70
2023-05-03T15:43:06.487Z,21.40
2023-05-03T15:45:36.863Z,21.00
2023-05-03T15:48:07.387Z,21.20
2023-05-03T15:50:37.357Z,21.60
2023-05-03T15:53:07.776Z,24.60
2023-05-03T15:55:39.539Z,25.30
2023-05-03T15:58:09.656Z,24.20
2023-05-03T16:00:40.195Z,23.00
2023-05-03T16:03:10.361Z,22.10
2023-05-03T16:05:40.629Z,21.80
2023-05-03T16:08:10.789Z,21.50
2023-05-03T16:10:42.394Z,21.40
2023-05-03T16:13:12.493Z,21.60
2023-05-03T16:15:42.525Z,22.40
2023-05-03T16:18:12.810Z,23.60
2023-05-03T16:20:43.075Z,22.60
2023-05-03T16:23:12.700Z,24.40
2023-05-03T16:25:44.337Z,23.90
2023-05-03T16:28:14.061Z,24.60
2023-05-03T16:30:44.196Z,24.80
2023-05-03T16:33:14.022Z,25.60
2023-05-03T16:35:43.998Z,26.10
2023-05-03T16:38:14.021Z,26.50
2023-05-03T16:40:46.618Z,26.30
2023-05-03T16:43:18.870Z,26.30
2023-05-03T16:45:56.574Z,25.30
2023-05-03T16:48:26.700Z,25.60
2023-05-03T16:50:56.909Z,26.00
2023-05-03T16:53:27.174Z,26.00
2023-05-03T16:55:58.666Z,25.70
2023-05-03T16:58:28.283Z,25.90
2023-05-03T17:00:58.421Z,26.20
2023-05-03T17:03:28.416Z,25.90
2023-05-03T17:05:58.634Z,25.60
2023-05-03T17:08:28.560Z,24.60
2023-05-03T17:11:00.011Z,24.30
2023-05-03T17:13:29.815Z,24.10
2023-05-03T17:15:59.523Z,22.80
2023-05-03T17:18:29.227Z,21.90
2023-05-03T17:21:02.103Z,20.90
2023-05-03T17:23:35.516Z,20.70
2023-05-03T17:26:08.799Z,20.70
2023-05-03T17:28:39.026Z,21.20
2023-05-03T17:31:09.302Z,22.70
2023-05-03T17:33:39.253Z,23.20
2023-05-03T17:36:09.685Z,22.90
2023-05-03T17:38:39.720Z,22.50
2023-05-03T17:41:12.195Z,22.00
2023-05-03T17:43:42.031Z,21.80
2023-05-03T17:46:14.623Z,21.30
2023-05-03T17:48:47.052Z,21.10
2023-05-03T17:51:17.271Z,20.70
2023-05-03T17:53:46.980Z,20.60
2023-05-03T17:56:19.647Z,20.30
2023-05-03T17:58:49.488Z,20.10
2023-05-03T18:01:19.530Z,20.00
2023-05-03T18:03:49.489Z,19.80
2023-05-03T18:06:19.438Z,19.60
2023-05-03T18:08:49.325Z,19.60
2023-05-03T18:11:20.583Z,19.60
2023-05-03T18:13:50.584Z,19.40
2023-05-03T18:16:20.339Z,19.40
2023-05-03T18:18:50.103Z,19.30
2023-05-03T18:21:22.378Z,19.20
2023-05-03T18:23:52.086Z,19.10
2023-05-03T18:26:23.943Z,19.20
2023-05-03T18:28:53.764Z,19.20
2023-05-03T18:31:23.597Z,19.10
2023-05-03T18:33:53.493Z,19.00
2023-05-03T18:36:24.335Z,18.90
2023-05-03T18:38:55.469Z,18.90
2023-05-03T18:41:27.357Z,19.00
2023-05-03T18:44:00.882Z,18.90
2023-05-03T18:46:31.542Z,18.80
2023-05-03T18:49:03.957Z,18.80
2023-05-03T18:51:34.047Z,18.60
2023-05-03T18:54:03.757Z,18.50
2023-05-03T18:56:35.018Z,18.40
2023-05-03T18:59:04.996Z,18.20
2023-05-03T19:01:35.562Z,18.00
2023-05-03T19:04:07.025Z,17.90
2023-05-03T19:06:36.916Z,17.90
2023-05-03T19:09:07.139Z,17.80
2023-05-03T19:11:40.120Z,17.70
2023-05-03T19:14:10.443Z,17.50
2023-05-03T19:16:40.340Z,17.40
2023-05-03T19:19:12.324Z,17.30
2023-05-03T19:21:44.086Z,17.50
2023-05-03T19:24:15.815Z,17.60
2023-05-03T19:26:48.121Z,17.60
2023-05-03T19:29:18.319Z,17.60
2023-05-03T19:31:48.445Z,17.60
2023-05-03T19:34:18.982Z,17.50
2023-05-03T19:36:49.093Z,17.30
2023-05-03T19:39:19.623Z,17.20
2023-05-03T19:41:53.431Z,17.00
2023-05-03T19:44:24.788Z,17.20
2023-05-03T19:46:55.721Z,17.10
2023-05-03T19:49:26.152Z,17.10
2023-05-03T19:51:56.469Z,17.00
2023-05-03T19:54:26.596Z,17.00
2023-05-03T19:56:58.449Z,16.80
2023-05-03T19:59:29.689Z,17.00
2023-05-03T20:01:59.510Z,16.90
2023-05-03T20:04:29.209Z,16.70
2023-05-03T20:06:59.750Z,16.70
2023-05-03T20:09:32.632Z,16.70
2023-05-03T20:12:03.969Z,16.50
2023-05-03T20:14:34.700Z,16.60
2023-05-03T20:17:05.016Z,16.50
2023-05-03T20:19:34.669Z,16.40
2023-05-03T20:22:04.551Z,16.40
2023-05-03T20:24:34.363Z,16.40
2023-05-03T20:27:07.657Z,16.30
2023-05-03T20:29:37.764Z,16.30
2023-05-03T20:32:08.212Z,16.30
2023-05-03T20:34:38.216Z,16.30
2023-05-03T20:37:07.913Z,16.30
2023-05-03T20:39:38.372Z,16.10
2023-05-03T20:42:10.009Z,16.10
2023-05-03T20:44:40.732Z,16.00
2023-05-03T20:47:10.564Z,16.00
2023-05-03T20:49:40.862Z,15.90
2023-05-03T20:52:10.888Z,16.00
2023-05-03T20:54:44.436Z,16.10
2023-05-03T20:57:17.267Z,16.20
2023-05-03T20:59:47.399Z,16.20
2023-05-03T21:02:17.780Z,16.30
2023-05-03T21:04:48.460Z,16.30
2023-05-03T21:07:18.466Z,16.20
2023-05-03T21:09:48.106Z,16.10
2023-05-03T21:12:19.420Z,16.10
2023-05-03T21:14:49.427Z,16.10
2023-05-03T21:17:19.142Z,16.00
2023-05-03T21:19:49.057Z,16.00
2023-05-03T21:22:18.677Z,15.90
2023-05-03T21:24:48.575Z,15.70
2023-05-03T21:27:22.588Z,15.60
2023-05-03T21:29:52.602Z,15.70
2023-05-03T21:32:22.416Z,15.70
2023-05-03T21:34:53.146Z,15.70
2023-05-03T21:37:22.902Z,15.70
2023-05-03T21:40:01.065Z,15.70
2023-05-03T21:42:33.339Z,15.70
2023-05-03T21:45:03.344Z,15.70
2023-05-03T21:47:33.131Z,15.90
2023-05-03T21:50:03.453Z,15.70
2023-05-03T21:52:34.118Z,15.60
2023-05-03T21:55:03.724Z,15.40
2023-05-03T21:57:35.273Z,15.50
2023-05-03T22:00:06.792Z,15.50
2023-05-03T22:02:38.124Z,15.20
2023-05-03T22:05:08.405Z,15.20
2023-05-03T22:07:37.994Z,15.20
2023-05-03T22:10:08.847Z,15.20
2023-05-03T22:12:40.527Z,15.30
2023-05-03T22:15:11.548Z,15.30
2023-05-03T22:17:41.724Z,15.30
2023-05-03T22:20:13.106Z,15.30
2023-05-03T22:22:44.257Z,15.30
2023-05-03T22:25:24.911Z,15.30
2023-05-03T22:27:56.670Z,15.20
2023-05-03T22:30:26.431Z,15.20
2023-05-03T22:32:55.968Z,15.30
2023-05-03T22:35:26.008Z,15.30
2023-05-03T22:37:55.817Z,15.10
2023-05-03T22:40:25.518Z,15.10
2023-05-03T22:42:57.102Z,15.10
2023-05-03T22:45:27.505Z,15.10
2023-05-03T22:47:57.640Z,15.00
2023-05-03T22:50:27.436Z,15.00
2023-05-03T22:52:57.454Z,15.10
2023-05-03T22:55:27.199Z,15.30
2023-05-03T22:57:58.515Z,15.30
2023-05-03T23:00:28.642Z,15.20
2023-05-03T23:02:58.378Z,15.10
2023-05-03T23:05:28.449Z,14.90
2023-05-03T23:07:58.476Z,15.10
2023-05-03T23:10:28.225Z,15.00
2023-05-03T23:12:59.946Z,15.20
2023-05-03T23:15:31.192Z,15.30
2023-05-03T23:18:01.276Z,15.30
2023-05-03T23:20:31.530Z,15.40
2023-05-03T23:23:01.646Z,15.40
2023-05-03T23:25:31.757Z,15.30
2023-05-03T23:28:03.235Z,15.00
2023-05-03T23:30:33.848Z,14.80
2023-05-03T23:33:04.249Z,14.70
2023-05-03T23:35:34.831Z,14.60
2023-05-03T23:38:05.076Z,14.50
2023-05-03T23:40:34.951Z,14.50
2023-05-03T23:43:06.190Z,14.40
2023-05-03T23:45:36.107Z,14.40
2023-05-03T23:48:06.175Z,14.50
2023-05-03T23:50:36.078Z,14.40
2023-05-03T23:53:06.556Z,14.30
2023-05-03T23:55:36.579Z,14.30
2023-05-03T23:58:07.915Z,14.40
